CYBWCYXC

Guest
Details From CYBW - Calgary Springbank
To CYXC - CANADIAN ROCKIES INTL
Flight Number -
Tags generated
Created
Modified
Stats Distance 105 nm / 194 km
Max Altitude 8,300 ft / 2,530 m
Waypoints 3
Social Downloads 0
Likes 0
Share VATSIM

Download

Looking for another format? Having issues loading an existing format? Contact us
Advertisement - Login to hide

Notes

Basic altitude profile: - Ascent Rate: 2500ft/min - Ascent Speed: 250kts - Cruise Altitude: 35000ft - Cruise Speed: 420kts - Descent Rate: 1500ft/min - Descent Speed: 250kts Options: - Use NATs: yes - Use PACOTS: yes - Use low airways: yes - Use high airways: no

Route

CYBW CONER CYXC

ID Type Via Altitude Latitude Longitude Leg Dist Tot Dist Heading (true) Name
O CYBW APT - 0 ft / 0 m 51.11176˚ -114.37654˚ - 0 nm - Calgary Springbank
CONER FIX - 8,300 ft / 2,530 m 50.16556˚ -115.24944˚ 65 nm 65 nm 211° / 210° -
O CYXC APT - 0 ft / 0 m 49.61212˚ -115.78205˚ 39 nm 104 nm 212° / 212° CANADIAN ROCKIES INTL

Altitude Profile

Advertisement - Login to hide

CYBW

Details ICAO CYBW (YBW)
Name Calgary Springbank
Region Canada
Timezone America/Edmonton (UTC-7.0)
Stats Elevation 3,937 ft / 1,200 m (AMSL)
Location 51.111765° -114.376537°
Runways 2
Magnetic Variation 14.237° E

METAR

CYBW 151000Z AUTO 32008KT 9SM BKN230 BKN250 04/M09 A2975 RMK SLP106

Decode

TAF

TAF CYBW 142338Z 1500/1505 VRB03KT P6SM FEW200 BECMG 1501/1503 BKN200 RMK FCST BASED ON AUTO OBS. NXT FCST WILL BE ISSUED AT 151245Z

Decode

Departure Runways

ID Width Length Bearing (true) Bearing (mag) Surface Threshold Offset Overrun Length
07 100 ft / 30 m 3,389 ft / 1,033 m 89.99° 75.75° Asphalt 0 ft / 0 m 0 ft / 0 m
16 75 ft / 23 m 3,083 ft / 940 m 180.71° 166.47° Asphalt 0 ft / 0 m 0 ft / 0 m
25 100 ft / 30 m 3,389 ft / 1,033 m 270.01° 255.77° Asphalt 0 ft / 0 m 0 ft / 0 m
34 75 ft / 23 m 3,083 ft / 940 m 0.71° 346.47° Asphalt 0 ft / 0 m 0 ft / 0 m

CYXC

Details ICAO CYXC (YXC)
Name CANADIAN ROCKIES INTL
Region Canada
Timezone America/Edmonton (UTC-7.0)
Stats Elevation 3,084 ft / 940 m (AMSL)
Location 49.612121° -115.782055°
Runways 1
Magnetic Variation 14.454° E

METAR

CYXC 151000Z 00000KT 15SM OVC013 M06/M07 A3018 RMK SC8 SLP272

Decode

TAF

TAF CYXC 150638Z 1507/1519 VRB03KT 6SM BR SCT005 OVC015 TEMPO 1507/1516 2SM BR BKN005 OVC015 FM151600 VRB03KT 3/4SM -SN BR BKN005 OVC010 TEMPO 1516/1519 3SM -SN SCT005 OVC010 RMK NXT FCST BY 151300Z

Decode

Destination Runways

ID Width Length Bearing (true) Bearing (mag) Surface Threshold Offset Overrun Length
16 150 ft / 46 m 8,000 ft / 2,438 m 179.16° 164.71° Asphalt 780 ft / 238 m 0 ft / 0 m
34 150 ft / 46 m 8,000 ft / 2,438 m 359.16° 344.71° Asphalt 0 ft / 0 m 0 ft / 0 m

Approach Navaids

Runway Type Ident Frequency Range Bearing (true) Bearing (mag) Slope Elevation
16 Localiser IXC 110.30 MHz 18 nm / 33 km 179.82° 165.37° - 3,058 ft / 932 m (AMSL)
16 Glidescope IXC 110.30 MHz 10 nm / 19 km 179.16° 164.70° 3.00° 3,015 ft / 919 m (AMSL)

Popular Alternatives